Time;durP1;ratioP1;P1;durP2;ratioP2;P2;SDS_P1;SDS_P2;PMS_P1;PMS_P2;Temp;Humidity;BMP_temperature;BMP_pressure;BME280_temperature;BME280_humidity;BME280_pressure;Samples;Min_cycle;Max_cycle;Signal;HPM_P1;HPM_P2
2021/08/23 00:00:17;;;;;;;14.65;10.88;;;16.50;99.90;;;;;;5095078;28;20047;-75
2021/08/23 00:02:43;;;;;;;16.83;11.57;;;16.50;99.90;;;;;;5095005;28;20119;-76
2021/08/23 00:05:10;;;;;;;15.40;11.27;;;16.50;99.90;;;;;;5095197;28;20076;-76
2021/08/23 00:07:36;;;;;;;18.23;11.00;;;16.50;99.90;;;;;;5095179;28;20488;-76
2021/08/23 00:10:02;;;;;;;16.77;10.77;;;16.60;99.90;;;;;;5094634;28;20082;-76
2021/08/23 00:12:29;;;;;;;20.45;11.68;;;16.60;99.90;;;;;;5095038;28;20047;-76
2021/08/23 00:14:55;;;;;;;19.23;10.70;;;16.60;99.90;;;;;;5094822;28;20047;-76
2021/08/23 00:17:21;;;;;;;21.33;12.45;;;16.60;99.90;;;;;;5095426;28;20048;-76
2021/08/23 00:19:47;;;;;;;19.80;11.07;;;16.50;99.90;;;;;;5094794;28;20139;-76
2021/08/23 00:22:32;;;;;;;21.35;12.35;;;16.70;99.90;;;;;;5094881;28;20036;-76
2021/08/23 00:25:00;;;;;;;17.15;11.65;;;16.70;99.90;;;;;;5094913;28;20123;-76
2021/08/23 00:27:27;;;;;;;15.48;10.60;;;16.60;99.90;;;;;;5094862;28;20039;-77
2021/08/23 00:29:53;;;;;;;18.67;10.80;;;16.70;99.90;;;;;;5094460;28;20044;-76
2021/08/23 00:32:20;;;;;;;16.95;10.55;;;16.80;99.90;;;;;;5094476;28;20042;-75
2021/08/23 00:34:45;;;;;;;19.75;10.82;;;16.70;99.90;;;;;;5094435;28;20476;-76
2021/08/23 00:37:11;;;;;;;17.45;10.70;;;16.70;99.90;;;;;;5094537;28;20040;-76
2021/08/23 00:39:37;;;;;;;17.70;10.65;;;16.70;99.90;;;;;;5094313;28;20040;-76
2021/08/23 00:42:04;;;;;;;17.77;10.80;;;16.60;99.90;;;;;;5094267;28;20043;-76
2021/08/23 00:44:34;;;;;;;22.95;12.30;;;16.60;99.90;;;;;;5094374;28;20084;-76
2021/08/23 00:47:01;;;;;;;22.58;12.77;;;16.60;99.90;;;;;;5094327;28;20449;-76
2021/08/23 00:49:28;;;;;;;20.38;11.88;;;16.50;99.90;;;;;;5094246;28;20064;-76
2021/08/23 00:51:58;;;;;;;19.42;10.95;;;16.60;99.90;;;;;;5094163;28;20047;-76
2021/08/23 00:54:23;;;;;;;14.80;9.25;;;16.60;99.90;;;;;;5094509;28;20047;-77
2021/08/23 00:56:50;;;;;;;18.02;9.88;;;16.50;99.90;;;;;;5094443;28;20032;-77
2021/08/23 00:59:18;;;;;;;15.98;10.27;;;16.50;99.90;;;;;;5093873;28;20152;-76
2021/08/23 01:01:43;;;;;;;14.55;9.75;;;16.50;99.90;;;;;;5094162;28;20040;-76
2021/08/23 01:04:20;;;;;;;15.88;9.25;;;16.50;99.90;;;;;;5094158;28;20100;-77
2021/08/23 01:06:46;;;;;;;13.35;8.23;;;16.50;99.90;;;;;;5093590;28;20436;-76
2021/08/23 01:09:14;;;;;;;12.13;7.32;;;16.50;99.90;;;;;;5093783;28;20416;-76
2021/08/23 01:11:50;;;;;;;10.68;7.70;;;16.50;99.90;;;;;;5093947;28;20047;-75
2021/08/23 01:14:17;;;;;;;11.68;7.35;;;16.50;99.90;;;;;;5094120;28;20038;-76
2021/08/23 01:16:43;;;;;;;9.88;6.20;;;16.50;99.90;;;;;;5094143;28;20036;-76
2021/08/23 01:19:11;;;;;;;10.07;6.18;;;16.60;99.90;;;;;;5093586;28;20036;-76
2021/08/23 01:21:37;;;;;;;14.23;6.57;;;16.60;99.90;;;;;;5093686;28;20040;-76
2021/08/23 01:24:04;;;;;;;9.63;5.55;;;16.70;99.90;;;;;;5093901;28;20043;-76
2021/08/23 01:26:39;;;;;;;9.45;5.78;;;16.60;99.90;;;;;;5093876;28;20074;-76
2021/08/23 01:29:11;;;;;;;11.25;5.93;;;16.60;99.90;;;;;;5093436;28;20036;-77
2021/08/23 01:31:40;;;;;;;14.73;6.30;;;16.60;99.90;;;;;;5093585;28;20123;-76
2021/08/23 01:34:08;;;;;;;10.25;5.95;;;16.60;99.90;;;;;;5093779;28;20040;-76
2021/08/23 01:36:35;;;;;;;9.13;5.70;;;16.60;99.90;;;;;;5093243;28;20036;-76
2021/08/23 01:39:00;;;;;;;8.57;5.10;;;16.50;99.90;;;;;;5093195;28;20039;-76
2021/08/23 01:41:26;;;;;;;10.07;5.13;;;16.50;99.90;;;;;;5093473;28;20032;-76
2021/08/23 01:43:52;;;;;;;12.75;5.95;;;16.40;99.90;;;;;;5093313;28;20047;-76
2021/08/23 01:46:18;;;;;;;12.20;4.93;;;16.40;99.90;;;;;;5093227;28;20036;-76
2021/08/23 01:48:44;;;;;;;7.35;4.45;;;16.40;99.90;;;;;;5093079;28;20047;-76
2021/08/23 01:51:09;;;;;;;7.55;5.10;;;16.40;99.90;;;;;;5093117;28;20035;-76
2021/08/23 01:53:35;;;;;;;10.80;5.95;;;16.40;99.90;;;;;;5093421;28;20114;-76
2021/08/23 01:56:01;;;;;;;6.72;4.68;;;16.40;99.90;;;;;;5093543;28;20044;-77
2021/08/23 01:58:28;;;;;;;8.73;4.43;;;16.40;99.90;;;;;;5093495;28;20419;-77
2021/08/23 02:00:53;;;;;;;10.18;5.93;;;16.40;99.90;;;;;;5093115;28;20044;-76
2021/08/23 02:03:24;;;;;;;7.35;5.55;;;16.40;99.90;;;;;;5093682;28;20040;-77
2021/08/23 02:05:50;;;;;;;9.48;4.95;;;16.40;99.90;;;;;;5093624;28;20051;-76
2021/08/23 02:08:16;;;;;;;7.57;5.05;;;16.40;99.90;;;;;;5093323;28;20039;-76
2021/08/23 02:10:41;;;;;;;8.63;4.80;;;16.40;99.90;;;;;;5093036;28;20115;-76
2021/08/23 02:13:07;;;;;;;6.25;4.63;;;16.30;99.90;;;;;;5093226;28;20081;-76
2021/08/23 02:15:33;;;;;;;9.80;5.10;;;16.30;99.90;;;;;;5093461;28;20038;-77
2021/08/23 02:17:58;;;;;;;8.82;5.15;;;16.30;99.90;;;;;;5093039;28;20058;-76
2021/08/23 02:20:24;;;;;;;9.95;4.85;;;16.30;99.90;;;;;;5095841;28;20036;-76
2021/08/23 02:22:50;;;;;;;7.22;4.80;;;16.30;99.90;;;;;;5097173;28;20043;-77
2021/08/23 02:25:21;;;;;;;9.00;5.22;;;16.20;99.90;;;;;;5096971;28;20115;-77
2021/08/23 02:27:51;;;;;;;7.82;5.13;;;16.20;99.90;;;;;;5097081;28;20422;-76
2021/08/23 02:30:17;;;;;;;8.02;4.55;;;16.20;99.90;;;;;;5096698;28;20036;-76
2021/08/23 02:32:43;;;;;;;9.13;5.38;;;16.20;99.90;;;;;;5096729;28;20047;-76
2021/08/23 02:35:09;;;;;;;7.75;4.90;;;16.10;99.90;;;;;;5096995;28;20036;-77
2021/08/23 02:37:35;;;;;;;8.77;5.57;;;16.10;99.90;;;;;;5096845;28;20032;-76
2021/08/23 02:40:02;;;;;;;9.95;5.35;;;16.00;99.90;;;;;;5096470;28;20043;-76
2021/08/23 02:42:28;;;;;;;12.85;5.70;;;16.00;99.90;;;;;;5096786;28;20127;-76
2021/08/23 02:44:54;;;;;;;10.52;5.72;;;15.90;99.90;;;;;;5096971;28;20068;-76
2021/08/23 02:47:19;;;;;;;9.95;5.30;;;15.90;99.90;;;;;;5096842;28;20036;-76
2021/08/23 02:49:45;;;;;;;10.75;5.43;;;15.90;99.90;;;;;;5096374;28;20074;-76
2021/08/23 02:52:10;;;;;;;10.70;4.80;;;15.90;99.90;;;;;;5096702;28;20460;-76
2021/08/23 02:54:36;;;;;;;8.57;6.03;;;15.90;99.90;;;;;;5096477;28;20065;-76
2021/08/23 02:57:02;;;;;;;10.32;5.82;;;15.90;99.90;;;;;;5096801;28;20047;-76
2021/08/23 02:59:27;;;;;;;11.18;5.35;;;15.90;99.90;;;;;;5096531;28;20434;-76
2021/08/23 03:01:53;;;;;;;8.15;5.47;;;15.80;99.90;;;;;;5096469;28;20549;-76
2021/08/23 03:04:19;;;;;;;9.38;5.60;;;15.90;99.90;;;;;;5096346;28;20534;-76
2021/08/23 03:06:45;;;;;;;13.27;5.55;;;15.90;99.90;;;;;;5096538;28;20040;-76
2021/08/23 03:09:10;;;;;;;10.43;5.60;;;15.90;99.90;;;;;;5095976;28;20044;-76
2021/08/23 03:11:36;;;;;;;8.98;5.57;;;16.00;99.90;;;;;;5096750;28;20085;-76
2021/08/23 03:14:02;;;;;;;7.38;5.38;;;16.00;99.90;;;;;;5096523;28;20036;-76
2021/08/23 03:16:28;;;;;;;11.00;5.35;;;16.00;99.90;;;;;;5096612;28;20046;-76
2021/08/23 03:18:53;;;;;;;12.18;5.70;;;16.00;99.90;;;;;;5096261;28;20036;-76
2021/08/23 03:21:20;;;;;;;14.27;5.95;;;16.00;99.90;;;;;;5096431;28;20047;-76
2021/08/23 03:23:46;;;;;;;7.68;5.05;;;16.00;99.90;;;;;;5095970;28;20032;-76
2021/08/23 03:26:11;;;;;;;11.13;5.30;;;16.10;99.90;;;;;;5095889;28;20488;-76
2021/08/23 03:28:37;;;;;;;12.43;6.28;;;16.00;99.90;;;;;;5095606;28;20046;-76
2021/08/23 03:31:04;;;;;;;12.50;5.10;;;16.10;99.90;;;;;;5095514;28;20047;-76
2021/08/23 03:33:30;;;;;;;9.77;5.20;;;16.10;99.90;;;;;;5096093;28;20495;-76
2021/08/23 03:35:55;;;;;;;11.63;6.00;;;16.10;99.90;;;;;;5095902;28;20036;-76
2021/08/23 03:38:21;;;;;;;9.90;5.70;;;16.10;99.90;;;;;;5095855;28;20040;-76
2021/08/23 03:40:46;;;;;;;8.10;5.07;;;16.10;99.90;;;;;;5095312;28;20036;-76
2021/08/23 03:43:12;;;;;;;10.27;5.45;;;16.10;99.90;;;;;;5095718;28;20063;-76
2021/08/23 03:45:38;;;;;;;10.85;5.30;;;16.10;99.90;;;;;;5095608;28;20067;-77
2021/08/23 03:48:04;;;;;;;6.80;4.50;;;16.10;99.90;;;;;;5095623;28;20092;-76
2021/08/23 03:50:30;;;;;;;7.88;5.55;;;16.10;99.90;;;;;;5095001;28;20036;-76
2021/08/23 03:52:55;;;;;;;13.55;6.00;;;16.10;99.90;;;;;;5095537;28;20044;-76
2021/08/23 03:55:22;;;;;;;8.98;5.50;;;16.10;99.90;;;;;;5095379;28;20036;-76
2021/08/23 03:57:48;;;;;;;11.05;5.43;;;16.10;99.90;;;;;;5095438;28;20063;-77
2021/08/23 04:00:13;;;;;;;8.80;5.05;;;16.10;99.90;;;;;;5094852;28;20040;-77
2021/08/23 04:02:39;;;;;;;9.15;5.10;;;16.10;99.90;;;;;;5095183;28;20082;-76
2021/08/23 04:05:05;;;;;;;11.27;5.75;;;16.10;99.90;;;;;;5095400;28;20047;-76
2021/08/23 04:07:31;;;;;;;11.02;5.55;;;16.10;99.90;;;;;;5095085;28;20051;-76
2021/08/23 04:09:57;;;;;;;14.00;5.57;;;16.10;99.90;;;;;;5094719;28;20040;-76
2021/08/23 04:12:22;;;;;;;12.65;4.82;;;16.00;99.90;;;;;;5095001;28;20069;-76
2021/08/23 04:14:48;;;;;;;9.68;4.75;;;16.00;99.90;;;;;;5094754;28;20472;-76
2021/08/23 04:17:14;;;;;;;10.10;4.75;;;16.00;99.90;;;;;;5095247;28;20047;-76
2021/08/23 04:19:39;;;;;;;10.93;4.30;;;16.00;99.90;;;;;;5094739;28;20115;-76
2021/08/23 04:22:06;;;;;;;9.27;4.68;;;16.10;99.90;;;;;;5095124;28;20036;-77
2021/08/23 04:24:31;;;;;;;10.93;4.43;;;16.10;99.90;;;;;;5094992;28;20054;-76
2021/08/23 04:26:57;;;;;;;6.70;4.38;;;16.00;99.90;;;;;;5094912;28;20032;-76
2021/08/23 04:29:23;;;;;;;7.45;4.30;;;16.00;99.90;;;;;;5094978;28;20032;-76
2021/08/23 04:31:48;;;;;;;11.10;5.10;;;16.00;99.90;;;;;;5094808;28;20093;-76
2021/08/23 04:34:14;;;;;;;9.27;4.10;;;16.00;99.90;;;;;;5095151;28;20040;-77
2021/08/23 04:36:40;;;;;;;9.98;4.07;;;15.90;99.90;;;;;;5095109;28;20111;-76
2021/08/23 04:39:07;;;;;;;10.75;4.80;;;15.90;99.90;;;;;;5094175;28;20036;-77
2021/08/23 04:41:37;;;;;;;10.20;4.60;;;15.90;99.90;;;;;;5094092;28;20036;-76
2021/08/23 04:44:03;;;;;;;9.00;4.43;;;15.90;99.90;;;;;;5094745;28;20040;-76
2021/08/23 04:46:29;;;;;;;7.55;4.93;;;15.90;99.90;;;;;;5094545;28;20043;-77
2021/08/23 04:48:54;;;;;;;8.30;5.10;;;15.90;99.90;;;;;;5094323;28;20044;-76
2021/08/23 04:51:20;;;;;;;9.73;4.80;;;15.90;99.90;;;;;;5094353;28;20373;-76
2021/08/23 04:53:46;;;;;;;7.32;4.38;;;15.90;99.90;;;;;;5094257;28;20042;-76
2021/08/23 04:56:11;;;;;;;8.98;4.50;;;15.90;99.90;;;;;;5094722;28;20040;-76
2021/08/23 04:58:38;;;;;;;11.40;4.47;;;15.80;99.90;;;;;;5093865;28;20494;-76
2021/08/23 05:01:04;;;;;;;8.52;4.57;;;15.80;99.90;;;;;;5094261;28;20040;-76
2021/08/23 05:03:29;;;;;;;8.55;4.40;;;15.80;99.90;;;;;;5093878;28;20036;-76
2021/08/23 05:05:55;;;;;;;8.75;4.40;;;15.80;99.90;;;;;;5093938;28;20403;-76
2021/08/23 05:08:21;;;;;;;8.95;5.28;;;15.80;99.90;;;;;;5094051;28;20048;-76
2021/08/23 05:10:47;;;;;;;7.50;4.72;;;15.80;99.90;;;;;;5093652;28;20039;-76
2021/08/23 05:13:13;;;;;;;8.85;4.40;;;15.80;99.90;;;;;;5094584;28;20044;-76
2021/08/23 05:15:38;;;;;;;7.47;4.40;;;15.80;99.90;;;;;;5094086;28;20065;-76
2021/08/23 05:18:04;;;;;;;8.88;4.20;;;15.80;99.90;;;;;;5093779;28;20078;-76
2021/08/23 05:20:30;;;;;;;7.10;4.72;;;15.90;99.90;;;;;;5093452;28;20146;-76
2021/08/23 05:22:56;;;;;;;9.27;4.53;;;16.00;99.90;;;;;;5093781;28;20072;-76
2021/08/23 05:25:22;;;;;;;10.98;4.65;;;16.00;99.90;;;;;;5094173;28;20059;-76
2021/08/23 05:27:50;;;;;;;8.60;4.30;;;16.10;99.90;;;;;;5093799;28;20094;-76
2021/08/23 05:30:16;;;;;;;8.18;3.80;;;16.20;99.90;;;;;;5093431;28;20043;-76
2021/08/23 05:32:42;;;;;;;8.45;4.10;;;16.30;99.90;;;;;;5093915;28;20044;-75
2021/08/23 05:35:08;;;;;;;8.00;4.25;;;16.50;99.90;;;;;;5093922;28;20384;-76
2021/08/23 05:37:34;;;;;;;5.93;3.60;;;16.60;99.90;;;;;;5094003;28;20032;-76
2021/08/23 05:40:01;;;;;;;8.18;4.05;;;16.80;99.90;;;;;;5093271;28;20065;-76
2021/08/23 05:42:26;;;;;;;12.23;4.35;;;16.80;99.90;;;;;;5093271;28;20043;-76
2021/08/23 05:44:53;;;;;;;12.02;4.30;;;16.90;99.90;;;;;;5093373;28;20040;-76
2021/08/23 05:47:20;;;;;;;7.50;3.35;;;16.90;99.90;;;;;;5093303;28;20043;-76
2021/08/23 05:49:45;;;;;;;9.80;4.00;;;17.10;99.90;;;;;;5093320;28;20044;-76
2021/08/23 05:52:11;;;;;;;10.23;3.63;;;17.20;99.90;;;;;;5093173;28;20044;-76
2021/08/23 05:54:39;;;;;;;12.60;4.40;;;17.30;99.90;;;;;;5093669;28;20051;-76
2021/08/23 05:57:05;;;;;;;8.57;4.00;;;17.30;99.90;;;;;;5093279;28;20071;-76
2021/08/23 05:59:31;;;;;;;9.02;3.85;;;17.50;99.90;;;;;;5092923;28;20036;-76
2021/08/23 06:01:57;;;;;;;11.18;3.75;;;17.70;99.90;;;;;;5093108;28;20043;-76
2021/08/23 06:04:23;;;;;;;8.55;3.47;;;17.80;99.90;;;;;;5093377;28;20385;-76
2021/08/23 06:06:49;;;;;;;8.10;3.13;;;17.90;99.90;;;;;;5093576;28;20081;-75
2021/08/23 06:09:16;;;;;;;10.98;3.67;;;18.00;99.90;;;;;;5092718;28;20036;-74
2021/08/23 06:11:42;;;;;;;9.15;3.38;;;18.10;99.90;;;;;;5093428;28;20438;-74
2021/08/23 06:14:07;;;;;;;7.78;3.70;;;18.10;99.90;;;;;;5092919;28;20036;-74
2021/08/23 06:16:33;;;;;;;4.95;3.08;;;18.30;99.90;;;;;;5093181;28;20047;-74
2021/08/23 06:18:58;;;;;;;5.32;2.53;;;18.40;99.90;;;;;;5093084;28;20093;-74
2021/08/23 06:21:24;;;;;;;8.88;3.20;;;18.50;99.90;;;;;;5092935;28;20123;-75
2021/08/23 06:23:50;;;;;;;9.52;3.15;;;18.60;99.90;;;;;;5092944;28;20036;-75
2021/08/23 06:26:16;;;;;;;9.18;3.63;;;18.50;99.90;;;;;;5093259;28;20039;-75
2021/08/23 06:28:42;;;;;;;4.63;2.42;;;18.60;99.90;;;;;;5092870;28;20050;-74
2021/08/23 06:31:07;;;;;;;5.45;2.17;;;18.60;99.90;;;;;;5093167;28;20047;-74
2021/08/23 06:33:34;;;;;;;11.55;3.13;;;18.60;99.90;;;;;;5092971;28;20036;-75
2021/08/23 06:36:01;;;;;;;6.20;3.08;;;18.70;99.90;;;;;;5093206;28;20101;-74
2021/08/23 06:38:26;;;;;;;8.85;3.42;;;18.90;99.90;;;;;;5093171;28;20063;-75
2021/08/23 06:40:52;;;;;;;5.47;2.72;;;19.00;99.90;;;;;;5092710;28;20451;-75
2021/08/23 06:43:19;;;;;;;7.45;2.78;;;19.00;99.90;;;;;;5092687;28;20076;-74
2021/08/23 06:45:44;;;;;;;8.02;2.28;;;19.10;99.90;;;;;;5093032;28;20071;-74
2021/08/23 06:48:10;;;;;;;4.38;2.35;;;19.40;99.90;;;;;;5092838;28;20488;-74
2021/08/23 06:50:36;;;;;;;8.27;2.50;;;19.40;99.90;;;;;;5091114;28;20047;-74
2021/08/23 06:53:03;;;;;;;7.25;2.38;;;19.40;99.90;;;;;;5092728;28;20411;-75
2021/08/23 06:55:29;;;;;;;5.57;3.00;;;19.60;99.90;;;;;;5092736;28;20047;-75
2021/08/23 06:57:55;;;;;;;8.27;2.83;;;19.80;99.90;;;;;;5093210;28;20044;-75
2021/08/23 07:00:21;;;;;;;5.53;2.95;;;19.60;99.90;;;;;;5092405;28;20036;-75
2021/08/23 07:02:47;;;;;;;4.63;2.20;;;19.30;99.90;;;;;;5092528;28;20121;-74
2021/08/23 07:05:13;;;;;;;4.80;2.13;;;19.00;99.90;;;;;;5094299;28;20047;-74
2021/08/23 07:07:38;;;;;;;5.30;2.33;;;19.00;99.90;;;;;;5096261;28;20036;-75
2021/08/23 07:10:05;;;;;;;6.00;2.40;;;19.00;99.90;;;;;;5095861;28;20120;-74
2021/08/23 07:12:33;;;;;;;5.90;2.60;;;19.10;99.90;;;;;;5095042;28;20456;-74
2021/08/23 07:15:01;;;;;;;11.10;3.72;;;19.00;99.90;;;;;;5096405;28;20384;-75
2021/08/23 07:17:28;;;;;;;5.88;2.55;;;19.10;99.90;;;;;;5096264;28;20115;-75
2021/08/23 07:19:54;;;;;;;4.28;2.30;;;19.10;99.90;;;;;;5096000;28;20115;-76
2021/08/23 07:22:20;;;;;;;10.05;3.13;;;19.00;99.90;;;;;;5096093;28;20468;-76
2021/08/23 07:24:47;;;;;;;6.95;2.80;;;18.90;99.90;;;;;;5096202;28;20050;-75
2021/08/23 07:27:24;;;;;;;8.02;2.65;;;18.90;99.90;;;;;;5096012;28;20082;-74
2021/08/23 07:29:49;;;;;;;7.82;2.90;;;18.80;99.90;;;;;;5095857;28;20036;-75
2021/08/23 07:32:15;;;;;;;5.93;2.40;;;18.80;99.90;;;;;;5096169;28;20040;-75
2021/08/23 07:34:42;;;;;;;6.13;2.78;;;18.90;99.90;;;;;;5095796;28;20047;-75
2021/08/23 07:37:08;;;;;;;5.10;2.05;;;19.10;99.90;;;;;;5095807;28;20127;-75
2021/08/23 07:39:37;;;;;;;5.30;1.95;;;19.10;99.90;;;;;;5095448;28;20040;-75
2021/08/23 07:42:02;;;;;;;6.68;2.13;;;19.30;99.90;;;;;;5095607;28;20107;-75
2021/08/23 07:44:28;;;;;;;3.53;1.73;;;19.60;99.90;;;;;;5095888;28;20074;-75
2021/08/23 07:46:54;;;;;;;7.25;2.17;;;19.70;99.90;;;;;;5095587;28;20052;-75
2021/08/23 07:49:20;;;;;;;5.38;1.52;;;20.10;99.90;;;;;;5095215;28;20067;-75
2021/08/23 07:51:46;;;;;;;5.90;1.63;;;20.30;99.90;;;;;;5095717;28;20059;-75
2021/08/23 07:54:11;;;;;;;6.72;1.77;;;20.60;99.90;;;;;;5095442;28;20044;-75
2021/08/23 07:56:37;;;;;;;6.28;2.03;;;20.80;99.90;;;;;;5095719;28;20131;-75
2021/08/23 07:59:03;;;;;;;6.25;2.05;;;21.00;99.90;;;;;;5095220;28;20085;-76
2021/08/23 08:01:29;;;;;;;6.28;2.03;;;21.30;99.90;;;;;;5095014;28;20043;-75
2021/08/23 08:03:54;;;;;;;8.73;2.88;;;21.30;99.90;;;;;;5095329;28;20080;-76
2021/08/23 08:06:20;;;;;;;8.25;2.30;;;21.30;99.90;;;;;;5095167;28;20044;-75
2021/08/23 08:08:52;;;;;;;5.38;2.17;;;21.40;99.90;;;;;;5094846;28;20061;-76
2021/08/23 08:11:17;;;;;;;4.45;1.90;;;21.50;99.90;;;;;;5095403;28;20043;-75
2021/08/23 08:13:44;;;;;;;4.90;2.00;;;21.50;99.90;;;;;;5095666;28;20043;-76
2021/08/23 08:16:10;;;;;;;3.65;1.75;;;21.70;99.90;;;;;;5095010;28;20399;-75
2021/08/23 08:18:36;;;;;;;7.20;2.22;;;21.60;99.90;;;;;;5094804;28;20396;-76
2021/08/23 08:21:03;;;;;;;5.43;1.75;;;21.70;99.90;;;;;;5095082;28;20032;-75
2021/08/23 08:23:29;;;;;;;4.63;2.10;;;21.50;99.90;;;;;;5094979;28;20038;-73
2021/08/23 08:25:56;;;;;;;6.18;2.58;;;21.60;99.90;;;;;;5094869;28;20036;-74
2021/08/23 08:28:22;;;;;;;8.55;1.85;;;21.70;99.90;;;;;;5094894;28;20074;-76
2021/08/23 08:30:47;;;;;;;4.18;1.50;;;21.70;99.90;;;;;;5094345;28;20036;-74
2021/08/23 08:33:15;;;;;;;3.67;1.40;;;21.90;99.90;;;;;;5094479;28;20067;-74
2021/08/23 08:35:41;;;;;;;4.22;1.73;;;22.00;99.70;;;;;;5094660;28;20473;-74
2021/08/23 08:38:07;;;;;;;3.05;1.35;;;21.90;99.60;;;;;;5094579;28;20059;-73
2021/08/23 08:40:41;;;;;;;6.05;1.77;;;21.90;98.70;;;;;;5094078;28;20036;-74
2021/08/23 08:43:07;;;;;;;5.50;1.33;;;21.70;99.40;;;;;;5093459;28;20442;-73
2021/08/23 08:45:36;;;;;;;3.85;1.30;;;22.00;98.80;;;;;;5094200;28;20040;-75
2021/08/23 08:48:03;;;;;;;4.03;1.20;;;21.90;93.10;;;;;;5094175;28;20500;-73
2021/08/23 08:50:32;;;;;;;2.78;1.23;;;21.90;94.20;;;;;;5095516;28;20028;-73
2021/08/23 08:53:05;;;;;;;3.22;1.55;;;21.80;92.70;;;;;;5094423;28;20534;-75
2021/08/23 08:55:36;;;;;;;3.15;1.23;;;21.90;94.10;;;;;;5094484;28;20093;-75
2021/08/23 08:58:06;;;;;;;4.20;1.45;;;21.90;93.20;;;;;;5094688;28;20101;-76
2021/08/23 09:00:40;;;;;;;2.47;1.40;;;22.00;92.90;;;;;;5093615;28;20036;-75
2021/08/23 09:03:07;;;;;;;2.97;1.05;;;22.00;93.70;;;;;;5094017;28;20426;-75
2021/08/23 09:05:38;;;;;;;2.35;1.20;;;21.80;93.70;;;;;;5094124;28;20435;-75
2021/08/23 09:08:05;;;;;;;5.25;0.93;;;21.80;92.80;;;;;;5094107;28;20043;-75
2021/08/23 09:10:42;;;;;;;2.83;1.30;;;21.90;91.80;;;;;;5093395;28;20036;-75
2021/08/23 09:13:10;;;;;;;1.45;0.70;;;21.90;90.80;;;;;;5093995;28;20036;-75
2021/08/23 09:15:57;;;;;;;3.20;0.80;;;21.70;92.00;;;;;;5093394;28;20048;-75
2021/08/23 09:18:35;;;;;;;3.80;1.48;;;21.60;89.30;;;;;;5093564;28;20040;-74
2021/08/23 09:21:04;;;;;;;2.03;1.10;;;21.50;90.90;;;;;;5093990;28;20556;-75
2021/08/23 09:23:47;;;;;;;3.83;1.30;;;21.40;91.80;;;;;;5093645;28;20036;-75
2021/08/23 09:26:31;;;;;;;3.40;1.25;;;21.70;90.00;;;;;;5093685;28;20040;-74
2021/08/23 09:29:16;;;;;;;3.03;1.20;;;21.50;92.10;;;;;;5092412;28;20037;-73
2021/08/23 09:31:43;;;;;;;2.00;0.80;;;21.50;89.50;;;;;;5093420;28;20292;-74
2021/08/23 09:34:14;;;;;;;4.20;1.58;;;21.60;90.80;;;;;;5093733;28;20036;-74
2021/08/23 09:37:00;;;;;;;3.47;1.10;;;21.60;90.90;;;;;;5092566;28;20586;-74
2021/08/23 09:39:29;;;;;;;2.58;1.30;;;21.40;90.80;;;;;;5093447;28;20093;-74
2021/08/23 09:42:05;;;;;;;1.95;0.80;;;21.30;91.00;;;;;;5093377;28;20042;-73
2021/08/23 09:44:38;;;;;;;3.85;1.20;;;21.40;89.90;;;;;;5093574;28;20036;-75
2021/08/23 09:47:08;;;;;;;4.22;1.17;;;21.50;86.80;;;;;;5092811;28;20044;-74
2021/08/23 09:49:39;;;;;;;2.40;0.85;;;21.40;89.40;;;;;;5093160;28;20111;-73
2021/08/23 09:52:06;;;;;;;4.50;1.05;;;21.50;90.90;;;;;;5092023;28;20040;-74
2021/08/23 09:54:32;;;;;;;3.80;1.30;;;21.40;91.60;;;;;;5093743;28;20450;-73
2021/08/23 09:56:58;;;;;;;2.22;1.10;;;21.40;89.90;;;;;;5093513;28;20036;-75
2021/08/23 09:59:25;;;;;;;3.03;1.27;;;21.30;88.80;;;;;;5093394;28;20093;-73
2021/08/23 10:01:53;;;;;;;4.57;1.20;;;21.40;87.90;;;;;;5093497;28;20043;-73
2021/08/23 10:04:20;;;;;;;3.25;1.15;;;21.50;88.90;;;;;;5093089;28;20433;-74
2021/08/23 10:06:47;;;;;;;6.03;2.13;;;21.40;82.60;;;;;;5093598;28;20546;-74
2021/08/23 10:09:24;;;;;;;3.03;1.58;;;21.30;83.20;;;;;;5092982;28;20428;-75
2021/08/23 10:11:52;;;;;;;3.78;1.23;;;21.30;85.30;;;;;;5093423;28;20048;-74
2021/08/23 10:14:19;;;;;;;2.03;1.20;;;21.40;83.80;;;;;;5092931;28;20492;-74
2021/08/23 10:16:45;;;;;;;1.98;0.98;;;21.50;88.80;;;;;;5093187;28;20119;-75
2021/08/23 10:19:12;;;;;;;1.33;0.80;;;21.50;83.40;;;;;;5092916;28;20105;-74
2021/08/23 10:21:47;;;;;;;4.15;1.52;;;21.70;84.40;;;;;;5092530;28;20043;-73
2021/08/23 10:24:20;;;;;;;4.32;1.45;;;21.60;83.30;;;;;;5092981;28;20369;-73
2021/08/23 10:26:47;;;;;;;4.03;1.55;;;21.60;78.00;;;;;;5093234;28;20047;-73
2021/08/23 10:29:14;;;;;;;3.17;1.48;;;21.60;79.00;;;;;;5092649;28;20048;-74
2021/08/23 10:31:43;;;;;;;4.47;1.55;;;21.40;74.70;;;;;;5087082;28;20106;-73
2021/08/23 10:34:14;;;;;;;4.70;1.92;;;21.50;68.20;;;;;;5092670;28;20044;-73
2021/08/23 10:36:40;;;;;;;3.53;1.60;;;21.40;69.30;;;;;;5090308;28;20111;-73
2021/08/23 10:39:06;;;;;;;3.75;1.67;;;21.50;68.30;;;;;;5072700;28;20043;-73
2021/08/23 10:41:32;;;;;;;3.65;1.75;;;21.50;72.90;;;;;;5076276;28;20041;-73
2021/08/23 10:44:01;;;;;;;2.97;1.50;;;21.40;72.40;;;;;;5076953;28;20124;-74
2021/08/23 10:46:38;;;;;;;3.40;1.48;;;21.40;74.30;;;;;;5076366;28;20079;-75
2021/08/23 10:49:11;;;;;;;2.95;1.35;;;21.50;71.80;;;;;;5076142;28;20032;-73
2021/08/23 10:51:55;;;;;;;;;;;21.40;73.70;;;;;;5077196;28;20032;-73
2021/08/23 10:54:42;;;;;;;2.47;1.25;;;21.30;73.50;;;;;;5076396;28;19917;-74
2021/08/23 10:57:13;;;;;;;2.22;1.00;;;21.40;70.50;;;;;;5076146;28;20043;-73
2021/08/23 10:59:50;;;;;;;3.00;1.40;;;21.40;72.60;;;;;;5075793;28;20531;-73
2021/08/23 11:02:32;;;;;;;3.72;1.13;;;21.40;72.50;;;;;;5074882;28;20036;-73
2021/08/23 11:05:15;;;;;;;2.05;1.15;;;21.40;74.60;;;;;;5076085;28;20443;-73
2021/08/23 11:07:59;;;;;;;3.58;1.50;;;21.50;71.30;;;;;;5075919;28;20127;-73
2021/08/23 11:10:26;;;;;;;3.17;1.58;;;21.40;75.50;;;;;;5075591;28;20043;-72
2021/08/23 11:12:54;;;;;;;2.65;1.20;;;21.50;78.90;;;;;;5076562;28;20040;-74
2021/08/23 11:15:26;;;;;;;6.88;1.55;;;21.50;73.40;;;;;;5076441;28;20469;-73
2021/08/23 11:18:17;;;;;;;3.80;1.10;;;21.50;76.80;;;;;;5076202;28;20041;-74
2021/08/23 11:20:52;;;;;;;2.78;0.93;;;21.50;74.50;;;;;;5075055;28;20053;-73
2021/08/23 11:23:22;;;;;;;2.03;1.08;;;21.60;78.10;;;;;;5075672;28;20033;-73
2021/08/23 11:25:50;;;;;;;2.22;1.30;;;21.60;74.70;;;;;;5076225;28;20117;-73
2021/08/23 11:28:20;;;;;;;3.30;1.45;;;21.70;76.60;;;;;;5075891;28;20036;-73
2021/08/23 11:30:50;;;;;;;2.22;1.08;;;21.70;80.40;;;;;;5075381;28;20032;-73
2021/08/23 11:33:36;;;;;;;2.58;1.35;;;21.70;83.50;;;;;;5075713;28;20069;-73
2021/08/23 11:36:14;;;;;;;13.25;1.40;;;21.80;85.70;;;;;;5075860;28;20437;-73
2021/08/23 11:38:40;;;;;;;2.13;1.17;;;21.80;85.00;;;;;;5075513;28;20066;-72
2021/08/23 11:41:09;;;;;;;3.10;1.17;;;21.80;85.70;;;;;;5075497;28;20420;-72
2021/08/23 11:43:36;;;;;;;1.80;1.25;;;21.90;82.70;;;;;;5074338;28;20094;-72
2021/08/23 11:46:03;;;;;;;2.42;1.08;;;21.90;85.10;;;;;;5075731;28;20040;-72
2021/08/23 11:48:29;;;;;;;4.85;1.20;;;21.70;88.80;;;;;;5075127;28;20044;-72
2021/08/23 11:50:56;;;;;;;3.15;0.98;;;21.80;90.10;;;;;;5075129;28;20481;-72
2021/08/23 11:53:23;;;;;;;6.95;1.35;;;21.90;86.80;;;;;;5075141;28;20048;-72
2021/08/23 11:55:50;;;;;;;3.40;1.20;;;21.80;90.30;;;;;;5075463;28;20033;-72
2021/08/23 11:58:22;;;;;;;3.00;1.95;;;21.90;90.00;;;;;;5075596;28;20083;-73
2021/08/23 12:01:03;;;;;;;4.03;1.40;;;21.80;90.40;;;;;;5074851;28;20068;-73
2021/08/23 12:03:30;;;;;;;2.38;1.30;;;21.80;90.70;;;;;;5075585;28;20052;-73
2021/08/23 12:06:31;;;;;;;4.13;1.20;;;21.90;92.00;;;;;;5074909;28;20047;-73
2021/08/23 12:09:00;;;;;;;2.58;1.10;;;22.00;90.70;;;;;;5074771;28;20083;-73
2021/08/23 12:11:25;;;;;;;2.60;1.20;;;21.70;92.90;;;;;;5075296;28;20093;-73
2021/08/23 12:13:51;;;;;;;5.72;1.50;;;21.90;92.20;;;;;;5075150;28;20040;-73
2021/08/23 12:16:31;;;;;;;5.70;1.40;;;22.00;91.10;;;;;;5075134;28;20037;-72
2021/08/23 12:19:09;;;;;;;2.20;1.10;;;22.00;90.80;;;;;;5074560;28;20439;-73
2021/08/23 12:21:35;;;;;;;4.05;1.10;;;21.90;91.80;;;;;;5075092;28;20550;-73
2021/08/23 12:24:13;;;;;;;10.85;1.70;;;21.90;91.10;;;;;;5074609;28;20045;-73
2021/08/23 12:26:42;;;;;;;2.50;0.93;;;22.00;92.30;;;;;;5074781;28;20036;-73
2021/08/23 12:29:10;;;;;;;2.53;1.30;;;21.90;90.70;;;;;;5074367;28;20064;-73
2021/08/23 12:31:47;;;;;;;4.13;0.93;;;21.90;89.40;;;;;;5074770;28;20068;-73
2021/08/23 12:34:15;;;;;;;2.40;1.13;;;22.10;89.50;;;;;;5074478;28;20048;-73
2021/08/23 12:36:43;;;;;;;2.95;1.23;;;22.00;91.30;;;;;;5074400;28;20109;-73
2021/08/23 12:39:09;;;;;;;2.65;1.02;;;21.80;91.00;;;;;;5073960;28;20071;-73
2021/08/23 12:41:38;;;;;;;4.53;1.23;;;21.70;91.60;;;;;;5074318;28;20040;-73
2021/08/23 12:44:05;;;;;;;3.05;1.50;;;21.90;89.40;;;;;;5074471;28;20044;-74
2021/08/23 12:46:31;;;;;;;5.50;1.90;;;21.90;90.10;;;;;;5074572;28;20044;-73